Time;durP1;ratioP1;P1;durP2;ratioP2;P2;SDS_P1;SDS_P2;PMS_P1;PMS_P2;Temp;Humidity;BMP_temperature;BMP_pressure;BME280_temperature;BME280_humidity;BME280_pressure;Samples;Min_cycle;Max_cycle;Signal;HPM_P1;HPM_P2
2023/03/30 00:00:52;;;;;;;10.48;7.40;;;12.00;86.20;;;;;;5032338;28;20037;-76
2023/03/30 00:03:21;;;;;;;10.73;6.90;;;12.00;86.10;;;;;;4999895;28;20033;-76
2023/03/30 00:05:50;;;;;;;11.38;7.32;;;12.10;86.10;;;;;;5038227;28;20041;-76
2023/03/30 00:08:17;;;;;;;10.13;6.65;;;12.10;86.10;;;;;;5065843;28;20045;-76
2023/03/30 00:10:44;;;;;;;9.27;6.00;;;12.10;86.00;;;;;;5035956;28;20045;-76
2023/03/30 00:13:11;;;;;;;9.93;6.35;;;12.10;85.80;;;;;;5015870;28;20053;-76
2023/03/30 00:15:38;;;;;;;11.38;6.32;;;12.10;85.70;;;;;;5015851;28;20643;-76
2023/03/30 00:18:03;;;;;;;11.02;6.38;;;12.10;85.60;;;;;;5016334;28;20465;-76
2023/03/30 00:20:32;;;;;;;11.20;6.35;;;12.10;85.40;;;;;;5032555;28;20088;-76
2023/03/30 00:22:58;;;;;;;12.45;5.95;;;12.20;85.40;;;;;;5050831;28;20053;-76
2023/03/30 00:25:24;;;;;;;10.63;6.50;;;12.20;85.20;;;;;;5049705;28;20045;-76
2023/03/30 00:27:50;;;;;;;9.00;6.13;;;12.20;85.10;;;;;;5054460;28;20054;-76
2023/03/30 00:30:17;;;;;;;8.68;6.75;;;12.20;84.90;;;;;;5015755;28;20045;-76
2023/03/30 00:32:45;;;;;;;8.88;5.75;;;12.20;84.80;;;;;;5048559;28;20041;-76
2023/03/30 00:35:11;;;;;;;10.20;6.43;;;12.20;84.70;;;;;;5018893;28;20040;-76
2023/03/30 00:37:38;;;;;;;11.82;6.35;;;12.20;84.60;;;;;;5023460;28;20064;-76
2023/03/30 00:40:12;;;;;;;8.52;5.70;;;12.20;84.50;;;;;;5032090;28;20044;-76
2023/03/30 00:42:38;;;;;;;8.93;5.90;;;12.20;84.40;;;;;;5015770;28;20476;-76
2023/03/30 00:45:26;;;;;;;13.13;6.60;;;12.20;84.30;;;;;;5017185;28;20083;-76
2023/03/30 00:48:04;;;;;;;8.13;6.15;;;12.20;84.20;;;;;;5035690;28;20040;-76
2023/03/30 00:50:37;;;;;;;8.80;5.65;;;12.20;84.20;;;;;;5035437;28;20083;-76
2023/03/30 00:53:16;;;;;;;11.65;5.88;;;12.20;84.10;;;;;;5035267;28;20487;-76
2023/03/30 00:55:44;;;;;;;8.95;5.40;;;12.20;84.10;;;;;;5015732;28;20077;-76
2023/03/30 00:58:11;;;;;;;7.93;5.07;;;12.20;84.00;;;;;;5065319;28;20150;-76
2023/03/30 01:00:38;;;;;;;9.80;5.75;;;12.20;83.90;;;;;;5015635;28;20075;-76
2023/03/30 01:03:12;;;;;;;8.55;5.60;;;12.20;83.90;;;;;;5065049;28;20049;-76
2023/03/30 01:05:40;;;;;;;8.48;4.82;;;12.20;83.80;;;;;;5008830;28;20056;-76
2023/03/30 01:08:06;;;;;;;7.63;4.43;;;12.30;83.70;;;;;;5035305;28;20051;-76
2023/03/30 01:10:35;;;;;;;7.90;4.82;;;12.20;83.50;;;;;;5035009;28;20048;-76
2023/03/30 01:13:01;;;;;;;8.60;4.75;;;12.20;83.30;;;;;;5031679;28;20046;-76
2023/03/30 01:15:33;;;;;;;7.32;4.63;;;12.30;83.00;;;;;;5031653;28;20039;-76
2023/03/30 01:18:11;;;;;;;9.07;5.10;;;12.30;82.80;;;;;;4999368;28;20033;-76
2023/03/30 01:20:52;;;;;;;8.27;5.20;;;12.30;82.60;;;;;;5031878;28;20030;-76
2023/03/30 01:23:53;;;;;;;6.97;4.70;;;12.30;82.50;;;;;;5015269;28;20080;-76
2023/03/30 01:26:53;;;;;;;8.60;5.35;;;12.30;82.50;;;;;;5030390;28;20045;-76
2023/03/30 01:29:35;;;;;;;8.10;4.80;;;12.30;82.50;;;;;;4996164;28;20053;-76
2023/03/30 01:32:44;;;;;;;7.45;4.63;;;12.30;82.50;;;;;;5017375;28;20049;-76
2023/03/30 01:35:39;;;;;;;8.98;4.85;;;12.30;82.30;;;;;;4983516;28;20053;-76
2023/03/30 01:38:32;;;;;;;8.20;4.47;;;12.30;82.40;;;;;;5007035;28;20400;-76
2023/03/30 01:41:25;;;;;;;5.97;4.35;;;12.30;82.10;;;;;;5028388;28;20046;-75
2023/03/30 01:44:11;;;;;;;8.13;5.10;;;12.30;82.10;;;;;;5007534;28;20045;-76
2023/03/30 01:46:46;;;;;;;11.60;5.38;;;12.30;82.10;;;;;;5035169;28;20482;-76
2023/03/30 01:49:52;;;;;;;7.43;4.78;;;12.30;82.20;;;;;;5043292;28;20056;-76
2023/03/30 01:52:27;;;;;;;9.93;5.38;;;12.30;82.00;;;;;;5045480;28;20108;-76
2023/03/30 01:55:12;;;;;;;6.97;4.82;;;12.30;82.10;;;;;;5031645;28;20049;-76
2023/03/30 01:57:45;;;;;;;8.27;4.80;;;12.30;81.90;;;;;;5025515;28;20103;-76
2023/03/30 02:00:16;;;;;;;7.65;4.25;;;12.30;82.00;;;;;;5018666;28;20033;-76
2023/03/30 02:02:53;;;;;;;7.65;4.28;;;12.30;81.90;;;;;;5051511;28;20041;-76
2023/03/30 02:05:21;;;;;;;9.40;4.50;;;12.30;81.80;;;;;;5034702;28;20539;-76
2023/03/30 02:07:54;;;;;;;8.55;4.53;;;12.30;81.80;;;;;;5024683;28;20399;-76
2023/03/30 02:10:23;;;;;;;8.82;5.15;;;12.30;81.80;;;;;;5018215;28;20045;-76
2023/03/30 02:12:50;;;;;;;9.40;5.15;;;12.30;81.80;;;;;;5034378;28;20049;-76
2023/03/30 02:15:17;;;;;;;8.80;4.60;;;12.30;81.70;;;;;;5014801;28;20484;-76
2023/03/30 02:17:46;;;;;;;7.80;4.88;;;12.20;81.50;;;;;;4982308;28;20041;-76
2023/03/30 02:20:15;;;;;;;10.57;4.75;;;12.20;81.40;;;;;;5015397;28;20045;-75
2023/03/30 02:22:41;;;;;;;8.80;4.70;;;12.20;81.50;;;;;;4998715;28;20044;-76
2023/03/30 02:25:07;;;;;;;8.35;4.75;;;12.20;81.50;;;;;;5000104;28;20068;-76
2023/03/30 02:27:33;;;;;;;8.38;4.75;;;12.20;81.50;;;;;;5018181;28;20076;-76
2023/03/30 02:29:59;;;;;;;10.13;4.57;;;12.20;81.50;;;;;;5001695;28;20041;-76
2023/03/30 02:32:30;;;;;;;8.68;4.15;;;12.20;81.50;;;;;;5017413;28;20080;-76
2023/03/30 02:35:21;;;;;;;6.60;4.60;;;12.20;81.40;;;;;;5058229;28;20116;-75
2023/03/30 02:38:08;;;;;;;8.52;4.45;;;12.20;81.20;;;;;;5050762;28;20522;-75
2023/03/30 02:41:11;;;;;;;9.05;4.72;;;12.20;81.20;;;;;;5050656;28;20524;-75
2023/03/30 02:43:58;;;;;;;6.22;3.97;;;12.20;81.00;;;;;;5019073;28;20056;-75
2023/03/30 02:46:32;;;;;;;8.90;4.60;;;12.10;81.00;;;;;;5037694;28;20131;-75
2023/03/30 02:49:35;;;;;;;7.53;4.95;;;12.20;80.90;;;;;;5037164;28;20075;-75
2023/03/30 02:52:36;;;;;;;7.50;4.25;;;12.10;80.40;;;;;;4990797;28;20057;-75
2023/03/30 02:55:22;;;;;;;8.75;4.20;;;12.10;80.60;;;;;;5042747;28;20045;-75
2023/03/30 02:58:23;;;;;;;8.23;4.03;;;12.10;80.70;;;;;;5022640;28;20166;-75
2023/03/30 03:00:54;;;;;;;7.88;4.60;;;12.10;80.70;;;;;;5016994;28;20045;-76
2023/03/30 03:03:34;;;;;;;7.38;4.03;;;12.10;80.70;;;;;;5016022;28;20488;-76
2023/03/30 03:06:01;;;;;;;5.60;3.90;;;12.00;80.50;;;;;;5050368;28;20457;-76
2023/03/30 03:08:36;;;;;;;7.78;3.95;;;12.00;80.60;;;;;;5017002;28;20038;-76
2023/03/30 03:11:02;;;;;;;7.32;4.05;;;12.00;80.40;;;;;;5016865;28;20033;-76
2023/03/30 03:13:28;;;;;;;10.93;4.20;;;12.00;80.40;;;;;;5055058;28;20076;-76
2023/03/30 03:15:57;;;;;;;5.25;3.72;;;12.00;80.30;;;;;;5006758;28;20069;-76
2023/03/30 03:18:23;;;;;;;8.43;3.90;;;12.00;80.30;;;;;;5004961;28;20438;-76
2023/03/30 03:20:49;;;;;;;6.43;4.25;;;11.90;80.20;;;;;;5033884;28;20041;-76
2023/03/30 03:23:15;;;;;;;7.25;4.03;;;11.90;80.30;;;;;;5030444;28;20045;-75
2023/03/30 03:25:41;;;;;;;7.18;3.83;;;11.90;80.40;;;;;;5036544;28;20044;-75
2023/03/30 03:28:07;;;;;;;6.50;3.80;;;11.90;80.40;;;;;;5003230;28;20053;-75
2023/03/30 03:30:33;;;;;;;6.85;3.88;;;11.90;80.40;;;;;;5033207;28;20050;-75
2023/03/30 03:33:00;;;;;;;6.40;3.60;;;11.90;80.90;;;;;;5016639;28;20041;-75
2023/03/30 03:35:26;;;;;;;6.15;3.67;;;11.90;80.60;;;;;;5031071;28;20502;-75
2023/03/30 03:37:52;;;;;;;6.72;3.58;;;11.90;80.60;;;;;;5016685;28;20046;-75
2023/03/30 03:40:17;;;;;;;6.93;3.83;;;11.90;80.80;;;;;;5000047;28;20044;-75
2023/03/30 03:42:43;;;;;;;7.68;3.03;;;11.90;80.90;;;;;;5016168;28;20033;-76
2023/03/30 03:45:10;;;;;;;5.35;3.00;;;11.90;81.00;;;;;;5008058;28;20049;-76
2023/03/30 03:47:35;;;;;;;5.88;3.28;;;11.90;81.10;;;;;;5000240;28;20042;-75
2023/03/30 03:50:05;;;;;;;8.70;3.47;;;11.90;81.20;;;;;;4999723;28;20037;-75
2023/03/30 03:52:31;;;;;;;8.18;3.45;;;11.80;81.30;;;;;;5015991;28;20037;-75
2023/03/30 03:54:57;;;;;;;9.25;3.42;;;11.90;81.50;;;;;;5022741;28;20029;-75
2023/03/30 03:57:23;;;;;;;8.65;3.50;;;11.90;81.60;;;;;;5032318;28;20140;-76
2023/03/30 03:59:50;;;;;;;8.85;3.25;;;11.90;81.80;;;;;;5049343;28;20076;-75
2023/03/30 04:02:16;;;;;;;6.00;3.17;;;11.90;81.90;;;;;;5032368;28;20069;-75
2023/03/30 04:04:41;;;;;;;5.78;3.17;;;11.90;81.90;;;;;;5032793;28;20079;-75
2023/03/30 04:07:07;;;;;;;5.75;3.30;;;11.90;81.90;;;;;;5016295;28;20085;-75
2023/03/30 04:09:33;;;;;;;6.97;2.92;;;11.90;81.90;;;;;;5032633;28;20627;-76
2023/03/30 04:11:58;;;;;;;7.35;2.92;;;11.90;81.90;;;;;;5032265;28;20128;-75
2023/03/30 04:14:24;;;;;;;5.00;2.65;;;11.90;81.90;;;;;;5015509;28;20037;-76
2023/03/30 04:16:50;;;;;;;5.15;2.72;;;12.00;81.90;;;;;;5015767;28;20124;-76
2023/03/30 04:19:16;;;;;;;7.93;3.08;;;12.00;81.80;;;;;;5043540;28;20033;-75
2023/03/30 04:21:45;;;;;;;9.95;3.42;;;12.00;81.80;;;;;;5048524;28;20579;-75
2023/03/30 04:24:12;;;;;;;7.22;2.63;;;12.00;81.90;;;;;;5031267;28;20046;-75
2023/03/30 04:26:40;;;;;;;7.97;3.08;;;12.00;81.90;;;;;;5062468;28;20044;-75
2023/03/30 04:29:06;;;;;;;7.05;3.05;;;12.00;82.00;;;;;;5015591;28;20074;-75
2023/03/30 04:31:34;;;;;;;7.15;3.05;;;12.00;82.10;;;;;;5015406;28;20476;-75
2023/03/30 04:34:01;;;;;;;9.13;3.47;;;12.10;82.20;;;;;;5032000;28;20045;-75
2023/03/30 04:36:30;;;;;;;8.57;3.08;;;12.00;82.30;;;;;;5015673;28;20048;-75
2023/03/30 04:38:59;;;;;;;7.03;3.10;;;12.10;82.40;;;;;;5020811;28;20029;-76
2023/03/30 04:41:34;;;;;;;8.40;2.83;;;12.10;82.50;;;;;;5015619;28;20061;-75
2023/03/30 04:44:05;;;;;;;6.90;2.90;;;12.10;82.60;;;;;;5032104;28;20422;-75
2023/03/30 04:46:32;;;;;;;9.75;3.15;;;12.10;82.70;;;;;;4998819;28;20049;-75
2023/03/30 04:48:58;;;;;;;8.38;2.80;;;12.10;82.70;;;;;;5048689;28;20439;-75
2023/03/30 04:51:24;;;;;;;13.20;3.78;;;12.10;82.80;;;;;;5015098;28;20061;-75
2023/03/30 04:53:50;;;;;;;8.68;3.50;;;12.10;82.90;;;;;;5015321;28;20395;-75
2023/03/30 04:56:15;;;;;;;7.03;3.17;;;12.10;83.00;;;;;;5015021;28;20132;-75
2023/03/30 04:58:42;;;;;;;10.85;3.13;;;12.10;83.10;;;;;;5024436;28;20174;-75
2023/03/30 05:01:07;;;;;;;7.75;3.40;;;12.10;83.20;;;;;;5017314;28;20124;-75
2023/03/30 05:03:34;;;;;;;8.40;3.53;;;12.10;83.10;;;;;;5030525;28;20480;-75
2023/03/30 05:06:00;;;;;;;7.47;3.05;;;12.10;83.10;;;;;;5031871;28;20107;-75
2023/03/30 05:08:26;;;;;;;6.78;2.95;;;12.10;83.00;;;;;;5017748;28;20473;-75
2023/03/30 05:10:52;;;;;;;7.95;3.17;;;12.10;82.90;;;;;;5048620;28;20074;-75
2023/03/30 05:13:17;;;;;;;5.90;3.17;;;12.10;82.80;;;;;;5050441;28;20448;-75
2023/03/30 05:15:43;;;;;;;7.03;3.05;;;12.20;82.80;;;;;;5031394;28;20038;-75
2023/03/30 05:18:09;;;;;;;9.23;3.20;;;12.10;82.70;;;;;;5015736;28;20041;-75
2023/03/30 05:20:35;;;;;;;9.00;3.60;;;12.10;82.60;;;;;;5048378;28;20341;-75
2023/03/30 05:23:00;;;;;;;7.78;3.08;;;12.10;82.50;;;;;;5052718;28;20531;-75
2023/03/30 05:25:26;;;;;;;5.85;3.38;;;12.10;82.40;;;;;;5005661;28;20060;-75
2023/03/30 05:27:52;;;;;;;6.60;3.20;;;12.20;82.40;;;;;;5035360;28;20132;-75
2023/03/30 05:30:18;;;;;;;6.28;3.13;;;12.20;82.40;;;;;;5051712;28;20057;-75
2023/03/30 05:32:43;;;;;;;7.88;3.30;;;12.20;82.40;;;;;;5058983;28;20041;-74
2023/03/30 05:35:10;;;;;;;6.03;2.85;;;12.20;82.40;;;;;;5022229;28;20037;-75
2023/03/30 05:37:37;;;;;;;5.15;2.55;;;12.20;82.40;;;;;;5051781;28;20041;-75
2023/03/30 05:40:07;;;;;;;8.05;2.83;;;12.20;82.40;;;;;;5051689;28;20033;-75
2023/03/30 05:42:32;;;;;;;6.55;3.00;;;12.20;82.70;;;;;;5068112;28;20052;-75
2023/03/30 05:44:58;;;;;;;6.38;2.65;;;12.20;82.10;;;;;;5020459;28;20028;-75
2023/03/30 05:47:24;;;;;;;7.38;2.80;;;12.20;82.10;;;;;;5016948;28;20038;-75
2023/03/30 05:49:49;;;;;;;5.45;2.78;;;12.20;82.10;;;;;;5037538;28;20048;-75
2023/03/30 05:52:15;;;;;;;10.80;2.80;;;12.20;82.00;;;;;;5020393;28;20125;-75
2023/03/30 05:54:41;;;;;;;11.60;2.67;;;12.20;82.00;;;;;;5017907;28;20115;-75
2023/03/30 05:57:06;;;;;;;8.18;3.15;;;12.20;82.00;;;;;;5017952;28;20115;-75
2023/03/30 05:59:32;;;;;;;8.50;3.13;;;12.20;81.90;;;;;;5034559;28;20072;-75
2023/03/30 06:01:59;;;;;;;5.93;2.97;;;12.20;82.00;;;;;;5037672;28;20108;-75
2023/03/30 06:04:26;;;;;;;9.15;3.20;;;12.20;82.10;;;;;;5017804;28;20049;-75
2023/03/30 06:06:52;;;;;;;5.88;2.45;;;12.20;82.40;;;;;;5018237;28;20391;-75
2023/03/30 06:09:18;;;;;;;5.15;2.50;;;12.20;82.60;;;;;;5017718;28;20167;-75
2023/03/30 06:11:44;;;;;;;7.47;3.00;;;12.30;82.80;;;;;;5001712;28;20128;-75
2023/03/30 06:14:10;;;;;;;9.48;3.00;;;12.20;82.80;;;;;;5017612;28;20042;-75
2023/03/30 06:16:35;;;;;;;4.78;2.67;;;12.30;83.00;;;;;;5001621;28;20037;-75
2023/03/30 06:19:02;;;;;;;8.80;2.75;;;12.30;83.00;;;;;;5017608;28;20072;-75
2023/03/30 06:21:28;;;;;;;6.22;3.20;;;12.30;83.00;;;;;;5034454;28;20037;-75
2023/03/30 06:23:54;;;;;;;11.48;3.13;;;12.30;83.00;;;;;;5017817;28;20077;-75
2023/03/30 06:26:19;;;;;;;8.57;3.25;;;12.30;83.10;;;;;;5001340;28;20116;-75
2023/03/30 06:28:46;;;;;;;10.38;3.05;;;12.30;83.20;;;;;;5017597;28;20057;-75
2023/03/30 06:31:11;;;;;;;7.90;2.70;;;12.30;83.30;;;;;;5001654;28;20044;-75
2023/03/30 06:33:37;;;;;;;8.43;3.38;;;12.30;83.20;;;;;;5001360;28;20396;-75
2023/03/30 06:36:03;;;;;;;8.88;3.00;;;12.30;83.20;;;;;;5000873;28;20480;-75
2023/03/30 06:38:29;;;;;;;8.63;3.90;;;12.30;83.30;;;;;;5017298;28;20484;-75
2023/03/30 06:40:55;;;;;;;11.25;3.60;;;12.30;83.30;;;;;;5017501;28;20041;-75
2023/03/30 06:43:23;;;;;;;9.35;3.35;;;12.30;83.20;;;;;;5001402;28;20396;-75
2023/03/30 06:45:54;;;;;;;11.80;3.95;;;12.30;83.20;;;;;;5000986;28;20079;-75
2023/03/30 06:48:25;;;;;;;8.45;3.00;;;12.30;83.30;;;;;;5017119;28;20076;-75
2023/03/30 06:50:52;;;;;;;15.90;3.97;;;12.30;83.30;;;;;;5033161;28;20046;-75
2023/03/30 06:53:18;;;;;;;9.27;3.10;;;12.40;83.30;;;;;;5017014;28;20076;-75
2023/03/30 06:55:49;;;;;;;10.43;4.40;;;12.40;83.30;;;;;;5000642;28;20076;-75
2023/03/30 06:58:15;;;;;;;11.77;3.75;;;12.40;83.10;;;;;;5033234;28;20053;-75
2023/03/30 07:00:40;;;;;;;11.95;4.28;;;12.40;83.00;;;;;;5017230;28;20094;-75
2023/03/30 07:03:07;;;;;;;16.98;4.82;;;12.40;82.90;;;;;;5033481;28;20504;-75
2023/03/30 07:05:33;;;;;;;12.43;4.20;;;12.40;82.90;;;;;;5017081;28;20548;-75
2023/03/30 07:07:59;;;;;;;12.60;4.80;;;12.40;82.90;;;;;;5033641;28;20393;-75
2023/03/30 07:10:25;;;;;;;12.18;4.97;;;12.50;82.90;;;;;;5016746;28;20041;-75
2023/03/30 07:12:51;;;;;;;17.80;4.95;;;12.50;82.90;;;;;;5016897;28;20045;-75
2023/03/30 07:15:17;;;;;;;16.45;4.38;;;12.50;82.90;;;;;;5016801;28;20041;-75
2023/03/30 07:17:42;;;;;;;12.88;3.92;;;12.50;82.80;;;;;;5050153;28;20045;-75
2023/03/30 07:20:10;;;;;;;19.15;4.95;;;12.50;82.70;;;;;;5033047;28;20038;-75
2023/03/30 07:22:36;;;;;;;14.77;3.70;;;12.50;82.50;;;;;;5016630;28;20037;-75
2023/03/30 07:25:02;;;;;;;12.20;3.97;;;12.60;82.40;;;;;;5049587;28;20125;-75
2023/03/30 07:27:28;;;;;;;19.98;4.30;;;12.50;82.20;;;;;;5000217;28;20095;-75
2023/03/30 07:29:54;;;;;;;15.55;3.60;;;12.60;82.10;;;;;;5016498;28;20041;-76
2023/03/30 07:32:21;;;;;;;12.55;3.53;;;12.60;81.90;;;;;;5016569;28;20432;-76
2023/03/30 07:34:46;;;;;;;16.25;3.85;;;12.60;81.80;;;;;;5032739;28;20088;-76
2023/03/30 07:37:13;;;;;;;11.85;3.53;;;12.60;81.70;;;;;;5032859;28;20037;-76
2023/03/30 07:39:40;;;;;;;13.23;3.53;;;12.60;81.50;;;;;;5049354;28;20120;-75
2023/03/30 07:42:06;;;;;;;16.83;3.97;;;12.60;81.40;;;;;;5016573;28;20053;-76
2023/03/30 07:44:32;;;;;;;15.77;3.58;;;12.60;81.40;;;;;;5016466;28;20037;-75
2023/03/30 07:46:58;;;;;;;15.07;3.75;;;12.60;81.40;;;;;;5015931;28;20431;-75
2023/03/30 07:49:24;;;;;;;18.13;3.78;;;12.60;81.30;;;;;;4999040;28;20045;-75
2023/03/30 07:51:50;;;;;;;13.00;3.30;;;12.60;81.00;;;;;;5032566;28;20045;-75
2023/03/30 07:54:16;;;;;;;15.20;3.78;;;12.60;81.00;;;;;;5015945;28;20083;-75
2023/03/30 07:56:43;;;;;;;15.45;3.10;;;12.60;80.90;;;;;;5015659;28;20072;-75
2023/03/30 07:59:12;;;;;;;17.88;4.13;;;12.60;80.80;;;;;;5015465;28;20057;-75
2023/03/30 08:01:38;;;;;;;17.05;3.33;;;12.70;80.80;;;;;;5049750;28;20519;-75
2023/03/30 08:04:05;;;;;;;19.33;4.35;;;12.70;80.70;;;;;;5000178;28;20080;-75
2023/03/30 08:06:30;;;;;;;18.27;3.95;;;12.70;80.60;;;;;;5048888;28;20567;-75
2023/03/30 08:08:56;;;;;;;20.40;4.22;;;12.60;80.30;;;;;;5032272;28;20041;-76
2023/03/30 08:11:22;;;;;;;21.25;4.15;;;12.70;80.30;;;;;;5015930;28;20041;-76
2023/03/30 08:13:48;;;;;;;15.45;3.53;;;12.70;80.20;;;;;;5015671;28;20392;-75
2023/03/30 08:16:13;;;;;;;18.73;4.10;;;12.60;80.00;;;;;;4999650;28;20053;-75
2023/03/30 08:18:42;;;;;;;20.63;5.60;;;12.70;80.10;;;;;;5032322;28;20033;-75
2023/03/30 08:21:09;;;;;;;22.42;4.78;;;12.70;80.00;;;;;;5015555;28;20049;-75
2023/03/30 08:23:35;;;;;;;20.55;5.47;;;12.70;79.90;;;;;;5016024;28;20072;-75
2023/03/30 08:26:01;;;;;;;17.02;3.97;;;12.70;79.90;;;;;;5015544;28;20053;-75
2023/03/30 08:28:27;;;;;;;22.08;4.40;;;12.70;79.80;;;;;;5015456;28;20042;-75
2023/03/30 08:30:53;;;;;;;18.45;3.90;;;12.70;80.20;;;;;;5015544;28;20051;-75
2023/03/30 08:33:22;;;;;;;18.63;4.45;;;12.70;79.70;;;;;;5015385;28;20045;-75
2023/03/30 08:35:48;;;;;;;15.43;3.80;;;12.70;79.70;;;;;;5015347;28;20048;-75
2023/03/30 08:38:17;;;;;;;17.60;3.90;;;12.70;79.50;;;;;;4999489;28;20075;-75
2023/03/30 08:40:46;;;;;;;20.42;5.30;;;12.70;79.40;;;;;;5032119;28;20037;-75
2023/03/30 08:43:30;;;;;;;16.20;3.63;;;12.70;79.30;;;;;;5015331;28;20041;-75
2023/03/30 08:45:59;;;;;;;20.42;4.68;;;12.70;79.00;;;;;;5015659;28;20045;-75
2023/03/30 08:48:29;;;;;;;21.20;4.60;;;12.70;79.20;;;;;;4998859;28;20049;-75
2023/03/30 08:50:59;;;;;;;17.73;4.05;;;12.70;79.20;;;;;;5015147;28;20132;-76
2023/03/30 08:53:28;;;;;;;17.48;4.65;;;12.80;79.10;;;;;;5015128;28;20088;-75
2023/03/30 08:56:09;;;;;;;21.15;4.40;;;12.80;79.00;;;;;;5015518;28;20554;-76
2023/03/30 08:58:47;;;;;;;18.25;5.03;;;12.80;78.80;;;;;;5015132;28;20139;-75
2023/03/30 09:01:18;;;;;;;18.25;4.53;;;12.80;78.70;;;;;;5016790;28;20044;-76
2023/03/30 09:04:21;;;;;;;17.85;3.60;;;12.80;78.70;;;;;;5003028;28;20127;-75
2023/03/30 09:07:10;;;;;;;23.83;5.07;;;12.90;78.40;;;;;;5019234;28;20124;-76
2023/03/30 09:09:45;;;;;;;17.70;4.05;;;12.90;78.50;;;;;;5019399;28;20127;-76
2023/03/30 09:12:22;;;;;;;17.80;4.85;;;13.00;78.40;;;;;;5019075;28;20124;-75
2023/03/30 09:14:55;;;;;;;18.85;4.43;;;13.00;78.10;;;;;;5019002;28;20049;-76
2023/03/30 09:17:54;;;;;;;16.47;3.93;;;13.10;77.60;;;;;;5019009;28;20040;-76
2023/03/30 09:20:25;;;;;;;14.07;3.92;;;13.10;76.90;;;;;;5018817;28;20771;-76
2023/03/30 09:22:53;;;;;;;15.80;4.07;;;13.20;77.30;;;;;;5035370;28;20535;-76
2023/03/30 09:25:22;;;;;;;15.50;4.13;;;13.20;77.40;;;;;;5051977;28;20485;-76
2023/03/30 09:27:51;;;;;;;15.95;3.95;;;13.30;77.10;;;;;;5018717;28;20080;-76
2023/03/30 09:30:26;;;;;;;13.80;3.63;;;13.50;76.50;;;;;;5018572;28;20038;-76
2023/03/30 09:33:05;;;;;;;16.83;3.30;;;13.60;76.00;;;;;;5035375;28;20033;-76
2023/03/30 09:35:42;;;;;;;17.13;4.15;;;13.70;75.10;;;;;;5035291;28;20124;-76
2023/03/30 09:38:11;;;;;;;20.48;3.72;;;13.80;74.20;;;;;;5018646;28;20041;-75
2023/03/30 09:40:53;;;;;;;14.18;3.13;;;13.90;73.90;;;;;;5018736;28;20429;-75
2023/03/30 09:43:42;;;;;;;16.23;3.75;;;14.00;73.10;;;;;;5002532;28;20096;-76
2023/03/30 09:46:08;;;;;;;15.70;3.97;;;14.00;73.00;;;;;;5018681;28;20077;-76
2023/03/30 09:48:45;;;;;;;15.13;3.35;;;14.00;72.90;;;;;;5018820;28;20390;-75
2023/03/30 09:51:26;;;;;;;17.05;3.40;;;14.00;72.70;;;;;;5018387;28;20037;-75
2023/03/30 09:53:59;;;;;;;17.88;3.90;;;14.10;72.50;;;;;;5018134;28;20048;-75
2023/03/30 09:56:34;;;;;;;14.05;2.95;;;14.10;72.60;;;;;;5017917;28;20047;-76
2023/03/30 09:59:21;;;;;;;17.50;3.95;;;14.10;72.50;;;;;;5034646;28;20050;-76
2023/03/30 10:01:47;;;;;;;17.38;3.47;;;14.10;72.20;;;;;;5050758;28;20052;-76
2023/03/30 10:04:15;;;;;;;15.30;3.47;;;14.20;72.30;;;;;;5017749;28;20049;-76
2023/03/30 10:06:48;;;;;;;18.27;3.50;;;14.20;71.90;;;;;;5017783;28;20546;-76
2023/03/30 10:09:19;;;;;;;14.90;3.75;;;14.20;71.40;;;;;;5018153;28;20045;-76
2023/03/30 10:11:48;;;;;;;17.52;4.85;;;14.20;71.40;;;;;;5034280;28;20038;-76
2023/03/30 10:14:33;;;;;;;15.07;3.33;;;14.30;71.60;;;;;;5034772;28;20042;-76
2023/03/30 10:17:00;;;;;;;16.67;4.00;;;14.30;71.20;;;;;;5034428;28;20048;-76
2023/03/30 10:19:27;;;;;;;13.18;3.40;;;14.30;71.50;;;;;;5034448;28;20484;-76
2023/03/30 10:21:55;;;;;;;14.55;3.20;;;14.30;71.40;;;;;;5017964;28;20041;-76
2023/03/30 10:24:30;;;;;;;14.52;4.00;;;14.30;71.10;;;;;;5017775;28;20052;-76
2023/03/30 10:27:02;;;;;;;14.60;3.55;;;14.40;71.10;;;;;;5034041;28;20102;-76
2023/03/30 10:29:28;;;;;;;17.10;3.78;;;14.40;71.40;;;;;;5050798;28;20048;-76
2023/03/30 10:32:17;;;;;;;17.98;3.83;;;14.40;70.60;;;;;;5033831;28;20045;-76
2023/03/30 10:34:53;;;;;;;20.25;4.05;;;14.50;70.40;;;;;;5017587;28;20115;-76
2023/03/30 10:37:38;;;;;;;13.55;3.55;;;14.60;70.60;;;;;;5017927;28;20042;-76
2023/03/30 10:40:31;;;;;;;18.25;3.78;;;14.70;70.10;;;;;;5034268;28;20063;-77
2023/03/30 10:42:58;;;;;;;13.10;3.95;;;14.80;69.40;;;;;;5017524;28;20037;-76
2023/03/30 10:45:33;;;;;;;22.75;5.03;;;14.80;69.30;;;;;;5033604;28;20052;-75
2023/03/30 10:48:09;;;;;;;15.13;3.25;;;14.80;68.50;;;;;;5017347;28;20480;-76
2023/03/30 10:50:42;;;;;;;17.73;3.65;;;14.80;68.30;;;;;;4997986;28;20161;-76
2023/03/30 10:53:44;;;;;;;11.70;3.05;;;14.80;68.60;;;;;;4997731;28;20038;-75
2023/03/30 10:56:33;;;;;;;19.73;4.28;;;14.90;68.90;;;;;;5013890;28;20046;-76
2023/03/30 10:59:10;;;;;;;16.05;3.55;;;14.90;68.70;;;;;;4994183;28;20057;-76
2023/03/30 11:01:47;;;;;;;17.13;4.25;;;14.90;69.10;;;;;;5003969;28;20033;-76
2023/03/30 11:04:32;;;;;;;17.00;4.45;;;14.90;69.10;;;;;;4997576;28;20042;-76
2023/03/30 11:07:00;;;;;;;17.27;3.70;;;15.00;69.50;;;;;;5013544;28;20069;-76
2023/03/30 11:09:31;;;;;;;15.52;4.13;;;15.00;69.90;;;;;;5030776;28;20037;-76
2023/03/30 11:12:02;;;;;;;19.65;4.45;;;15.10;69.60;;;;;;5030234;28;20041;-76
2023/03/30 11:14:36;;;;;;;17.30;4.78;;;15.10;68.70;;;;;;5046491;28;20034;-76
2023/03/30 11:17:07;;;;;;;;;;;15.20;68.00;;;;;;5046829;28;20504;-76
2023/03/30 11:19:48;;;;;;;19.50;4.55;;;15.30;68.80;;;;;;5013846;28;19917;-76
2023/03/30 11:22:29;;;;;;;19.73;4.97;;;15.30;68.20;;;;;;5046320;28;20172;-76
2023/03/30 11:24:56;;;;;;;18.75;3.92;;;15.30;68.30;;;;;;5012745;28;20041;-76
2023/03/30 11:27:30;;;;;;;14.55;3.75;;;15.40;67.90;;;;;;4997360;28;20052;-76
2023/03/30 11:30:07;;;;;;;14.35;3.75;;;15.50;67.50;;;;;;5013416;28;20045;-76
2023/03/30 11:32:55;;;;;;;13.57;3.67;;;15.60;67.40;;;;;;5046391;28;20049;-76
2023/03/30 11:35:28;;;;;;;26.50;5.13;;;15.60;66.70;;;;;;5029892;28;20441;-76
2023/03/30 11:38:10;;;;;;;19.55;4.45;;;15.60;66.60;;;;;;5029893;28;20116;-76
2023/03/30 11:40:50;;;;;;;18.23;4.05;;;15.60;66.90;;;;;;5046083;28;20052;-76
2023/03/30 11:43:18;;;;;;;20.48;4.30;;;15.70;66.90;;;;;;5046069;28;20049;-76
2023/03/30 11:46:15;;;;;;;20.67;5.63;;;15.70;66.60;;;;;;5029263;28;20042;-76
2023/03/30 11:49:15;;;;;;;16.25;3.70;;;15.80;66.40;;;;;;5045772;28;20560;-76
2023/03/30 11:51:52;;;;;;;21.42;4.90;;;15.80;66.30;;;;;;5045843;28;20592;-76
2023/03/30 11:54:34;;;;;;;19.02;4.65;;;15.70;66.70;;;;;;5012851;28;20049;-76
2023/03/30 11:57:03;;;;;;;21.73;4.47;;;15.80;66.40;;;;;;5047574;28;20041;-76
2023/03/30 11:59:37;;;;;;;18.67;4.25;;;15.90;66.20;;;;;;5016104;28;20049;-76
2023/03/30 12:02:34;;;;;;;20.35;4.68;;;15.80;65.70;;;;;;5016472;28;20087;-76
2023/03/30 12:05:15;;;;;;;19.27;4.90;;;15.90;66.00;;;;;;4996591;28;20045;-76
2023/03/30 12:07:44;;;;;;;21.67;4.68;;;15.90;65.90;;;;;;4996129;28;20042;-76
2023/03/30 12:10:25;;;;;;;23.05;5.20;;;15.90;65.60;;;;;;5046441;28;20512;-76
2023/03/30 12:12:54;;;;;;;20.70;5.72;;;15.90;65.10;;;;;;5015626;28;20045;-75
2023/03/30 12:15:56;;;;;;;21.55;4.72;;;15.90;65.40;;;;;;5015775;28;20041;-76
2023/03/30 12:18:29;;;;;;;14.75;3.67;;;16.00;65.10;;;;;;5015358;28;20500;-76
2023/03/30 12:21:11;;;;;;;17.20;4.60;;;15.90;64.90;;;;;;5015650;28;20732;-75
2023/03/30 12:23:59;;;;;;;18.30;4.90;;;15.90;64.40;;;;;;5015379;28;20124;-77
2023/03/30 12:26:31;;;;;;;16.75;3.83;;;15.90;63.90;;;;;;5048530;28;20095;-76
2023/03/30 12:29:03;;;;;;;21.65;5.95;;;15.80;64.00;;;;;;5015440;28;20053;-76
2023/03/30 12:31:47;;;;;;;25.80;5.78;;;15.80;63.80;;;;;;5015791;28;20377;-76
2023/03/30 12:34:12;;;;;;;25.20;4.97;;;15.80;64.10;;;;;;5014579;28;20041;-76
2023/03/30 12:36:45;;;;;;;18.38;4.90;;;15.70;64.50;;;;;;5032153;28;20167;-76
2023/03/30 12:39:24;;;;;;;22.05;5.93;;;15.80;64.80;;;;;;5016487;28;20475;-76
2023/03/30 12:42:04;;;;;;;23.02;5.35;;;15.80;64.80;;;;;;5035349;28;20102;-76
2023/03/30 12:45:23;;;;;;;19.60;5.00;;;15.80;65.00;;;;;;5018950;28;20042;-74
2023/03/30 12:48:06;;;;;;;25.35;5.38;;;15.80;65.60;;;;;;5023691;28;20140;-75
2023/03/30 12:50:57;;;;;;;17.63;4.68;;;15.80;65.00;;;;;;5048879;28;20095;-76
2023/03/30 12:53:29;;;;;;;19.35;4.70;;;15.80;65.10;;;;;;4993946;28;20064;-76
2023/03/30 12:56:26;;;;;;;22.33;5.03;;;15.80;65.50;;;;;;5042433;28;20437;-75
2023/03/30 12:59:25;;;;;;;19.17;4.20;;;15.80;65.00;;;;;;4999308;28;20060;-76
2023/03/30 13:01:59;;;;;;;19.60;4.78;;;15.80;64.20;;;;;;4993061;28;20045;-76
2023/03/30 13:04:37;;;;;;;21.98;5.22;;;15.80;64.60;;;;;;5008893;28;20049;-76
2023/03/30 13:07:16;;;;;;;22.15;5.28;;;15.80;64.50;;;;;;5009418;28;20049;-76